sensor_id;sensor_type;location;lat;lon;timestamp;P1;durP1;ratioP1;P2;durP2;ratioP2
5127;SDS011;2582;48.770;9.190;2024-03-02T00:00:57;12.33;;;11.07;;
5127;SDS011;2582;48.770;9.190;2024-03-02T00:03:23;14.53;;;13.03;;
5127;SDS011;2582;48.770;9.190;2024-03-02T00:05:50;12.40;;;11.10;;
5127;SDS011;2582;48.770;9.190;2024-03-02T00:08:24;15.40;;;11.77;;
5127;SDS011;2582;48.770;9.190;2024-03-02T00:10:51;13.43;;;12.07;;
5127;SDS011;2582;48.770;9.190;2024-03-02T00:13:18;13.30;;;12.00;;
5127;SDS011;2582;48.770;9.190;2024-03-02T00:15:48;15.57;;;12.80;;
5127;SDS011;2582;48.770;9.190;2024-03-02T00:18:18;14.77;;;12.53;;
5127;SDS011;2582;48.770;9.190;2024-03-02T00:20:46;13.50;;;12.03;;
5127;SDS011;2582;48.770;9.190;2024-03-02T00:23:14;13.10;;;11.70;;
5127;SDS011;2582;48.770;9.190;2024-03-02T00:25:50;13.20;;;11.87;;
5127;SDS011;2582;48.770;9.190;2024-03-02T00:28:24;14.43;;;11.10;;
5127;SDS011;2582;48.770;9.190;2024-03-02T00:30:58;13.10;;;11.70;;
5127;SDS011;2582;48.770;9.190;2024-03-02T00:36:07;12.37;;;11.17;;
5127;SDS011;2582;48.770;9.190;2024-03-02T00:38:34;13.00;;;11.70;;
5127;SDS011;2582;48.770;9.190;2024-03-02T00:41:06;13.63;;;11.23;;
5127;SDS011;2582;48.770;9.190;2024-03-02T00:43:41;12.90;;;11.50;;
5127;SDS011;2582;48.770;9.190;2024-03-02T00:46:13;13.40;;;12.00;;
5127;SDS011;2582;48.770;9.190;2024-03-02T00:48:51;10.93;;;9.83;;
5127;SDS011;2582;48.770;9.190;2024-03-02T00:51:25;11.37;;;10.23;;
5127;SDS011;2582;48.770;9.190;2024-03-02T00:53:52;12.33;;;11.03;;
5127;SDS011;2582;48.770;9.190;2024-03-02T00:56:20;12.90;;;11.10;;
5127;SDS011;2582;48.770;9.190;2024-03-02T00:58:47;10.77;;;9.60;;
5127;SDS011;2582;48.770;9.190;2024-03-02T01:01:12;12.17;;;10.70;;
5127;SDS011;2582;48.770;9.190;2024-03-02T01:03:38;10.87;;;9.67;;
5127;SDS011;2582;48.770;9.190;2024-03-02T01:06:06;15.63;;;11.23;;
5127;SDS011;2582;48.770;9.190;2024-03-02T01:08:32;14.57;;;10.83;;
5127;SDS011;2582;48.770;9.190;2024-03-02T01:10:58;13.00;;;11.17;;
5127;SDS011;2582;48.770;9.190;2024-03-02T01:13:24;14.47;;;12.20;;
5127;SDS011;2582;48.770;9.190;2024-03-02T01:15:49;12.40;;;10.37;;
5127;SDS011;2582;48.770;9.190;2024-03-02T01:18:15;10.40;;;9.30;;
5127;SDS011;2582;48.770;9.190;2024-03-02T01:20:41;12.60;;;10.90;;
5127;SDS011;2582;48.770;9.190;2024-03-02T01:23:06;13.30;;;11.10;;
5127;SDS011;2582;48.770;9.190;2024-03-02T01:25:32;17.43;;;12.40;;
5127;SDS011;2582;48.770;9.190;2024-03-02T01:27:58;12.27;;;10.97;;
5127;SDS011;2582;48.770;9.190;2024-03-02T01:30:23;12.77;;;11.10;;
5127;SDS011;2582;48.770;9.190;2024-03-02T01:32:49;11.10;;;9.03;;
5127;SDS011;2582;48.770;9.190;2024-03-02T01:35:14;12.00;;;10.57;;
5127;SDS011;2582;48.770;9.190;2024-03-02T01:37:40;11.17;;;10.07;;
5127;SDS011;2582;48.770;9.190;2024-03-02T01:40:06;10.97;;;9.30;;
5127;SDS011;2582;48.770;9.190;2024-03-02T01:42:37;13.43;;;11.80;;
5127;SDS011;2582;48.770;9.190;2024-03-02T01:45:06;12.27;;;10.90;;
5127;SDS011;2582;48.770;9.190;2024-03-02T01:47:33;12.37;;;11.17;;
5127;SDS011;2582;48.770;9.190;2024-03-02T01:49:59;11.87;;;10.60;;
5127;SDS011;2582;48.770;9.190;2024-03-02T01:52:26;12.83;;;10.67;;
5127;SDS011;2582;48.770;9.190;2024-03-02T01:54:52;14.23;;;11.97;;
5127;SDS011;2582;48.770;9.190;2024-03-02T01:57:18;11.00;;;9.87;;
5127;SDS011;2582;48.770;9.190;2024-03-02T01:59:44;12.07;;;10.30;;
5127;SDS011;2582;48.770;9.190;2024-03-02T02:02:12;12.37;;;11.07;;
5127;SDS011;2582;48.770;9.190;2024-03-02T02:04:38;12.97;;;11.13;;
5127;SDS011;2582;48.770;9.190;2024-03-02T02:07:04;12.90;;;11.07;;
5127;SDS011;2582;48.770;9.190;2024-03-02T02:09:31;12.70;;;11.30;;
5127;SDS011;2582;48.770;9.190;2024-03-02T02:11:57;11.30;;;9.87;;
5127;SDS011;2582;48.770;9.190;2024-03-02T02:14:23;14.33;;;10.93;;
5127;SDS011;2582;48.770;9.190;2024-03-02T02:16:49;13.47;;;11.00;;
5127;SDS011;2582;48.770;9.190;2024-03-02T02:19:15;13.17;;;10.70;;
5127;SDS011;2582;48.770;9.190;2024-03-02T02:21:43;12.73;;;10.33;;
5127;SDS011;2582;48.770;9.190;2024-03-02T02:24:09;11.57;;;10.37;;
5127;SDS011;2582;48.770;9.190;2024-03-02T02:26:35;11.90;;;10.70;;
5127;SDS011;2582;48.770;9.190;2024-03-02T02:29:01;10.47;;;9.40;;
5127;SDS011;2582;48.770;9.190;2024-03-02T02:31:28;13.93;;;12.20;;
5127;SDS011;2582;48.770;9.190;2024-03-02T02:34:05;12.37;;;10.23;;
5127;SDS011;2582;48.770;9.190;2024-03-02T02:36:31;12.37;;;10.43;;
5127;SDS011;2582;48.770;9.190;2024-03-02T02:39:02;12.90;;;10.03;;
5127;SDS011;2582;48.770;9.190;2024-03-02T02:41:29;12.00;;;10.27;;
5127;SDS011;2582;48.770;9.190;2024-03-02T02:43:55;12.80;;;11.47;;
5127;SDS011;2582;48.770;9.190;2024-03-02T02:46:21;11.57;;;10.37;;
5127;SDS011;2582;48.770;9.190;2024-03-02T02:48:47;12.73;;;10.57;;
5127;SDS011;2582;48.770;9.190;2024-03-02T02:51:13;13.73;;;10.80;;
5127;SDS011;2582;48.770;9.190;2024-03-02T02:53:38;12.53;;;10.47;;
5127;SDS011;2582;48.770;9.190;2024-03-02T02:56:07;13.30;;;10.40;;
5127;SDS011;2582;48.770;9.190;2024-03-02T02:58:32;13.07;;;10.40;;
5127;SDS011;2582;48.770;9.190;2024-03-02T03:00:58;12.57;;;9.30;;
5127;SDS011;2582;48.770;9.190;2024-03-02T03:03:23;12.43;;;10.37;;
5127;SDS011;2582;48.770;9.190;2024-03-02T03:05:49;15.07;;;11.60;;
5127;SDS011;2582;48.770;9.190;2024-03-02T03:08:15;14.80;;;10.90;;
5127;SDS011;2582;48.770;9.190;2024-03-02T03:10:43;16.53;;;11.07;;
5127;SDS011;2582;48.770;9.190;2024-03-02T03:13:09;12.73;;;10.90;;
5127;SDS011;2582;48.770;9.190;2024-03-02T03:15:35;13.60;;;11.47;;
5127;SDS011;2582;48.770;9.190;2024-03-02T03:18:04;12.70;;;10.27;;
5127;SDS011;2582;48.770;9.190;2024-03-02T03:20:30;15.60;;;11.40;;
5127;SDS011;2582;48.770;9.190;2024-03-02T03:22:59;14.60;;;11.87;;
5127;SDS011;2582;48.770;9.190;2024-03-02T03:25:25;13.30;;;11.90;;
5127;SDS011;2582;48.770;9.190;2024-03-02T03:27:50;18.13;;;13.23;;
5127;SDS011;2582;48.770;9.190;2024-03-02T03:30:18;15.13;;;11.30;;
5127;SDS011;2582;48.770;9.190;2024-03-02T03:32:44;15.37;;;11.83;;
5127;SDS011;2582;48.770;9.190;2024-03-02T03:35:10;14.43;;;11.80;;
5127;SDS011;2582;48.770;9.190;2024-03-02T03:37:37;15.13;;;11.10;;
5127;SDS011;2582;48.770;9.190;2024-03-02T03:40:03;14.70;;;11.50;;
5127;SDS011;2582;48.770;9.190;2024-03-02T03:42:34;16.23;;;12.90;;
5127;SDS011;2582;48.770;9.190;2024-03-02T03:45:01;14.67;;;11.43;;
5127;SDS011;2582;48.770;9.190;2024-03-02T03:47:26;15.80;;;13.07;;
5127;SDS011;2582;48.770;9.190;2024-03-02T03:49:52;18.93;;;13.60;;
5127;SDS011;2582;48.770;9.190;2024-03-02T03:52:18;18.03;;;13.73;;
5127;SDS011;2582;48.770;9.190;2024-03-02T03:54:43;16.93;;;13.10;;
5127;SDS011;2582;48.770;9.190;2024-03-02T03:57:09;16.40;;;12.50;;
5127;SDS011;2582;48.770;9.190;2024-03-02T03:59:35;16.50;;;13.30;;
5127;SDS011;2582;48.770;9.190;2024-03-02T04:02:02;15.87;;;11.70;;
5127;SDS011;2582;48.770;9.190;2024-03-02T04:04:28;14.20;;;12.20;;
5127;SDS011;2582;48.770;9.190;2024-03-02T04:06:54;18.10;;;13.93;;
5127;SDS011;2582;48.770;9.190;2024-03-02T04:09:19;15.27;;;12.00;;
5127;SDS011;2582;48.770;9.190;2024-03-02T04:11:45;19.07;;;13.13;;
5127;SDS011;2582;48.770;9.190;2024-03-02T04:14:11;16.93;;;13.90;;
5127;SDS011;2582;48.770;9.190;2024-03-02T04:16:37;15.00;;;11.77;;
5127;SDS011;2582;48.770;9.190;2024-03-02T04:19:04;15.10;;;12.80;;
5127;SDS011;2582;48.770;9.190;2024-03-02T04:21:29;15.57;;;12.10;;
5127;SDS011;2582;48.770;9.190;2024-03-02T04:23:55;18.43;;;14.47;;
5127;SDS011;2582;48.770;9.190;2024-03-02T04:26:24;17.27;;;12.73;;
5127;SDS011;2582;48.770;9.190;2024-03-02T04:28:51;19.43;;;15.10;;
5127;SDS011;2582;48.770;9.190;2024-03-02T04:31:17;14.70;;;13.03;;
5127;SDS011;2582;48.770;9.190;2024-03-02T04:33:42;19.53;;;13.90;;
5127;SDS011;2582;48.770;9.190;2024-03-02T04:36:08;17.87;;;14.27;;
5127;SDS011;2582;48.770;9.190;2024-03-02T04:38:37;17.23;;;12.70;;
5127;SDS011;2582;48.770;9.190;2024-03-02T04:41:04;17.10;;;14.50;;
5127;SDS011;2582;48.770;9.190;2024-03-02T04:43:32;16.00;;;12.60;;
5127;SDS011;2582;48.770;9.190;2024-03-02T04:45:58;15.37;;;11.57;;
5127;SDS011;2582;48.770;9.190;2024-03-02T04:48:24;13.40;;;11.07;;
5127;SDS011;2582;48.770;9.190;2024-03-02T04:50:50;19.90;;;14.00;;
5127;SDS011;2582;48.770;9.190;2024-03-02T04:53:15;16.30;;;12.83;;
5127;SDS011;2582;48.770;9.190;2024-03-02T04:55:41;16.90;;;12.90;;
5127;SDS011;2582;48.770;9.190;2024-03-02T04:58:07;17.13;;;13.43;;
5127;SDS011;2582;48.770;9.190;2024-03-02T05:00:33;16.23;;;13.20;;
5127;SDS011;2582;48.770;9.190;2024-03-02T05:02:58;23.07;;;12.93;;
5127;SDS011;2582;48.770;9.190;2024-03-02T05:05:24;14.63;;;11.37;;
5127;SDS011;2582;48.770;9.190;2024-03-02T05:07:49;17.83;;;13.87;;
5127;SDS011;2582;48.770;9.190;2024-03-02T05:10:15;16.00;;;11.90;;
5127;SDS011;2582;48.770;9.190;2024-03-02T05:12:41;16.80;;;13.80;;
5127;SDS011;2582;48.770;9.190;2024-03-02T05:15:07;23.30;;;13.57;;
5127;SDS011;2582;48.770;9.190;2024-03-02T05:17:36;18.10;;;13.80;;
5127;SDS011;2582;48.770;9.190;2024-03-02T05:20:03;15.00;;;12.87;;
5127;SDS011;2582;48.770;9.190;2024-03-02T05:22:29;17.30;;;13.07;;
5127;SDS011;2582;48.770;9.190;2024-03-02T05:24:55;15.23;;;12.80;;
5127;SDS011;2582;48.770;9.190;2024-03-02T05:27:21;15.60;;;13.27;;
5127;SDS011;2582;48.770;9.190;2024-03-02T05:29:47;14.97;;;12.97;;
5127;SDS011;2582;48.770;9.190;2024-03-02T05:32:12;16.63;;;13.90;;
5127;SDS011;2582;48.770;9.190;2024-03-02T05:34:38;16.13;;;13.30;;
5127;SDS011;2582;48.770;9.190;2024-03-02T05:37:03;17.90;;;12.70;;
5127;SDS011;2582;48.770;9.190;2024-03-02T05:39:29;16.53;;;12.80;;
5127;SDS011;2582;48.770;9.190;2024-03-02T05:41:54;18.10;;;13.97;;
5127;SDS011;2582;48.770;9.190;2024-03-02T05:44:20;15.73;;;12.60;;
5127;SDS011;2582;48.770;9.190;2024-03-02T05:46:47;17.73;;;14.40;;
5127;SDS011;2582;48.770;9.190;2024-03-02T05:49:12;17.80;;;12.87;;
5127;SDS011;2582;48.770;9.190;2024-03-02T05:51:38;17.37;;;13.77;;
5127;SDS011;2582;48.770;9.190;2024-03-02T05:54:04;18.80;;;14.27;;
5127;SDS011;2582;48.770;9.190;2024-03-02T05:56:29;20.50;;;13.80;;
5127;SDS011;2582;48.770;9.190;2024-03-02T05:58:55;15.93;;;12.80;;
5127;SDS011;2582;48.770;9.190;2024-03-02T06:01:42;18.63;;;13.80;;
5127;SDS011;2582;48.770;9.190;2024-03-02T06:04:09;18.90;;;13.77;;
5127;SDS011;2582;48.770;9.190;2024-03-02T06:06:36;16.67;;;12.60;;
5127;SDS011;2582;48.770;9.190;2024-03-02T06:09:02;19.00;;;14.27;;
5127;SDS011;2582;48.770;9.190;2024-03-02T06:11:32;18.23;;;13.93;;
5127;SDS011;2582;48.770;9.190;2024-03-02T06:14:04;15.77;;;13.83;;
5127;SDS011;2582;48.770;9.190;2024-03-02T06:16:30;20.03;;;14.13;;
5127;SDS011;2582;48.770;9.190;2024-03-02T06:18:56;16.67;;;12.47;;
5127;SDS011;2582;48.770;9.190;2024-03-02T06:21:23;18.87;;;15.40;;
5127;SDS011;2582;48.770;9.190;2024-03-02T06:23:48;17.43;;;14.63;;
5127;SDS011;2582;48.770;9.190;2024-03-02T06:26:14;20.40;;;15.63;;
5127;SDS011;2582;48.770;9.190;2024-03-02T06:28:40;15.93;;;12.97;;
5127;SDS011;2582;48.770;9.190;2024-03-02T06:31:05;20.27;;;14.70;;
5127;SDS011;2582;48.770;9.190;2024-03-02T06:33:31;18.07;;;14.03;;
5127;SDS011;2582;48.770;9.190;2024-03-02T06:35:56;17.40;;;12.90;;
5127;SDS011;2582;48.770;9.190;2024-03-02T06:38:22;16.70;;;13.17;;
5127;SDS011;2582;48.770;9.190;2024-03-02T06:40:47;18.07;;;14.47;;
5127;SDS011;2582;48.770;9.190;2024-03-02T06:43:13;15.27;;;12.80;;
5127;SDS011;2582;48.770;9.190;2024-03-02T06:45:38;18.03;;;14.80;;
5127;SDS011;2582;48.770;9.190;2024-03-02T06:48:04;15.03;;;12.50;;
5127;SDS011;2582;48.770;9.190;2024-03-02T06:50:30;14.13;;;12.47;;
5127;SDS011;2582;48.770;9.190;2024-03-02T06:52:56;15.70;;;11.83;;
5127;SDS011;2582;48.770;9.190;2024-03-02T06:55:22;15.73;;;13.13;;
5127;SDS011;2582;48.770;9.190;2024-03-02T06:57:49;15.00;;;12.50;;
5127;SDS011;2582;48.770;9.190;2024-03-02T07:00:15;16.37;;;13.10;;
5127;SDS011;2582;48.770;9.190;2024-03-02T07:02:42;16.83;;;13.60;;
5127;SDS011;2582;48.770;9.190;2024-03-02T07:05:09;18.30;;;14.13;;
5127;SDS011;2582;48.770;9.190;2024-03-02T07:07:36;16.80;;;12.60;;
5127;SDS011;2582;48.770;9.190;2024-03-02T07:10:02;17.00;;;13.40;;
5127;SDS011;2582;48.770;9.190;2024-03-02T07:12:29;15.30;;;13.00;;
5127;SDS011;2582;48.770;9.190;2024-03-02T07:14:55;16.10;;;12.60;;
5127;SDS011;2582;48.770;9.190;2024-03-02T07:17:36;17.40;;;13.20;;
5127;SDS011;2582;48.770;9.190;2024-03-02T07:20:02;12.47;;;10.80;;
5127;SDS011;2582;48.770;9.190;2024-03-02T07:22:28;15.37;;;12.70;;
5127;SDS011;2582;48.770;9.190;2024-03-02T07:24:54;15.57;;;13.70;;
5127;SDS011;2582;48.770;9.190;2024-03-02T07:27:20;13.30;;;10.80;;
5127;SDS011;2582;48.770;9.190;2024-03-02T07:29:46;16.93;;;13.67;;
5127;SDS011;2582;48.770;9.190;2024-03-02T07:32:11;13.47;;;11.03;;
5127;SDS011;2582;48.770;9.190;2024-03-02T07:34:37;13.90;;;11.00;;
5127;SDS011;2582;48.770;9.190;2024-03-02T07:37:03;17.30;;;13.43;;
5127;SDS011;2582;48.770;9.190;2024-03-02T07:39:29;13.70;;;11.33;;
5127;SDS011;2582;48.770;9.190;2024-03-02T07:41:55;14.07;;;11.40;;
5127;SDS011;2582;48.770;9.190;2024-03-02T07:44:21;14.50;;;12.10;;
5127;SDS011;2582;48.770;9.190;2024-03-02T07:46:47;13.17;;;10.77;;
5127;SDS011;2582;48.770;9.190;2024-03-02T07:49:16;12.27;;;10.97;;
5127;SDS011;2582;48.770;9.190;2024-03-02T07:51:45;14.73;;;12.40;;
5127;SDS011;2582;48.770;9.190;2024-03-02T07:54:10;18.40;;;12.53;;
5127;SDS011;2582;48.770;9.190;2024-03-02T07:56:36;12.60;;;11.00;;
5127;SDS011;2582;48.770;9.190;2024-03-02T07:59:02;14.80;;;12.70;;
5127;SDS011;2582;48.770;9.190;2024-03-02T08:01:28;16.23;;;12.03;;
5127;SDS011;2582;48.770;9.190;2024-03-02T08:03:58;13.30;;;11.17;;
5127;SDS011;2582;48.770;9.190;2024-03-02T08:06:24;13.77;;;12.00;;
5127;SDS011;2582;48.770;9.190;2024-03-02T08:08:52;10.30;;;9.20;;
5127;SDS011;2582;48.770;9.190;2024-03-02T08:11:22;12.57;;;11.07;;
5127;SDS011;2582;48.770;9.190;2024-03-02T08:13:48;13.57;;;10.50;;
5127;SDS011;2582;48.770;9.190;2024-03-02T08:16:14;16.30;;;10.80;;
5127;SDS011;2582;48.770;9.190;2024-03-02T08:18:41;10.33;;;8.90;;
5127;SDS011;2582;48.770;9.190;2024-03-02T08:21:07;14.13;;;11.83;;
5127;SDS011;2582;48.770;9.190;2024-03-02T08:23:33;14.30;;;10.80;;
5127;SDS011;2582;48.770;9.190;2024-03-02T08:25:59;10.80;;;9.63;;
5127;SDS011;2582;48.770;9.190;2024-03-02T08:28:25;12.23;;;10.90;;
5127;SDS011;2582;48.770;9.190;2024-03-02T08:30:50;11.33;;;9.93;;
5127;SDS011;2582;48.770;9.190;2024-03-02T08:33:16;12.33;;;9.60;;
5127;SDS011;2582;48.770;9.190;2024-03-02T08:35:41;14.60;;;10.20;;
5127;SDS011;2582;48.770;9.190;2024-03-02T08:38:07;12.17;;;10.63;;
5127;SDS011;2582;48.770;9.190;2024-03-02T08:40:33;10.90;;;9.67;;
5127;SDS011;2582;48.770;9.190;2024-03-02T08:42:58;13.00;;;9.90;;
5127;SDS011;2582;48.770;9.190;2024-03-02T08:45:24;11.87;;;9.30;;
5127;SDS011;2582;48.770;9.190;2024-03-02T08:47:49;10.53;;;8.97;;
5127;SDS011;2582;48.770;9.190;2024-03-02T08:50:15;10.40;;;8.43;;
5127;SDS011;2582;48.770;9.190;2024-03-02T08:52:40;9.40;;;7.67;;
5127;SDS011;2582;48.770;9.190;2024-03-02T08:55:07;10.67;;;8.50;;
5127;SDS011;2582;48.770;9.190;2024-03-02T08:57:33;10.43;;;8.47;;
5127;SDS011;2582;48.770;9.190;2024-03-02T08:59:59;10.27;;;9.27;;
5127;SDS011;2582;48.770;9.190;2024-03-02T09:02:25;9.43;;;8.43;;
5127;SDS011;2582;48.770;9.190;2024-03-02T09:04:50;8.57;;;7.70;;
5127;SDS011;2582;48.770;9.190;2024-03-02T09:07:16;9.53;;;8.53;;
5127;SDS011;2582;48.770;9.190;2024-03-02T09:09:42;9.67;;;8.00;;
5127;SDS011;2582;48.770;9.190;2024-03-02T09:12:07;10.50;;;7.87;;
5127;SDS011;2582;48.770;9.190;2024-03-02T09:14:33;10.50;;;8.37;;
5127;SDS011;2582;48.770;9.190;2024-03-02T09:17:00;9.20;;;8.30;;
5127;SDS011;2582;48.770;9.190;2024-03-02T09:19:25;7.70;;;7.00;;
5127;SDS011;2582;48.770;9.190;2024-03-02T09:21:51;10.07;;;7.70;;
5127;SDS011;2582;48.770;9.190;2024-03-02T09:24:16;8.83;;;7.93;;
5127;SDS011;2582;48.770;9.190;2024-03-02T09:26:42;9.50;;;7.23;;
5127;SDS011;2582;48.770;9.190;2024-03-02T09:29:07;7.53;;;6.83;;
5127;SDS011;2582;48.770;9.190;2024-03-02T09:31:38;7.33;;;6.60;;
5127;SDS011;2582;48.770;9.190;2024-03-02T09:34:05;8.53;;;7.63;;
5127;SDS011;2582;48.770;9.190;2024-03-02T09:36:30;7.10;;;6.40;;
5127;SDS011;2582;48.770;9.190;2024-03-02T09:38:56;7.67;;;6.87;;
5127;SDS011;2582;48.770;9.190;2024-03-02T09:41:21;6.70;;;5.80;;
5127;SDS011;2582;48.770;9.190;2024-03-02T09:43:47;7.37;;;6.20;;
5127;SDS011;2582;48.770;9.190;2024-03-02T09:46:13;6.60;;;6.00;;
5127;SDS011;2582;48.770;9.190;2024-03-02T09:48:40;7.00;;;6.30;;
5127;SDS011;2582;48.770;9.190;2024-03-02T09:51:05;7.27;;;6.50;;
5127;SDS011;2582;48.770;9.190;2024-03-02T09:53:32;6.53;;;5.83;;
5127;SDS011;2582;48.770;9.190;2024-03-02T09:56:01;6.07;;;5.47;;
5127;SDS011;2582;48.770;9.190;2024-03-02T09:58:27;6.30;;;5.70;;
5127;SDS011;2582;48.770;9.190;2024-03-02T10:00:53;5.80;;;5.27;;
5127;SDS011;2582;48.770;9.190;2024-03-02T10:03:18;6.43;;;5.83;;
5127;SDS011;2582;48.770;9.190;2024-03-02T10:05:44;6.37;;;5.77;;
5127;SDS011;2582;48.770;9.190;2024-03-02T10:08:10;6.43;;;5.83;;
5127;SDS011;2582;48.770;9.190;2024-03-02T10:10:36;6.80;;;6.10;;
5127;SDS011;2582;48.770;9.190;2024-03-02T10:13:07;6.30;;;5.70;;
5127;SDS011;2582;48.770;9.190;2024-03-02T10:15:35;6.33;;;5.73;;
5127;SDS011;2582;48.770;9.190;2024-03-02T10:18:02;5.57;;;5.13;;
5127;SDS011;2582;48.770;9.190;2024-03-02T10:20:28;7.07;;;5.80;;
5127;SDS011;2582;48.770;9.190;2024-03-02T10:22:56;6.10;;;5.50;;
5127;SDS011;2582;48.770;9.190;2024-03-02T10:25:44;6.13;;;4.60;;
5127;SDS011;2582;48.770;9.190;2024-03-02T10:28:10;7.77;;;5.37;;
5127;SDS011;2582;48.770;9.190;2024-03-02T10:30:35;6.17;;;5.57;;
5127;SDS011;2582;48.770;9.190;2024-03-02T10:33:01;7.50;;;4.90;;
5127;SDS011;2582;48.770;9.190;2024-03-02T10:35:27;6.60;;;5.97;;
5127;SDS011;2582;48.770;9.190;2024-03-02T10:37:53;5.10;;;4.60;;
5127;SDS011;2582;48.770;9.190;2024-03-02T10:40:22;5.80;;;5.20;;
5127;SDS011;2582;48.770;9.190;2024-03-02T10:42:48;5.77;;;5.27;;
5127;SDS011;2582;48.770;9.190;2024-03-02T10:45:16;4.90;;;4.50;;
5127;SDS011;2582;48.770;9.190;2024-03-02T10:47:42;4.87;;;4.47;;
5127;SDS011;2582;48.770;9.190;2024-03-02T10:50:08;5.33;;;4.83;;
5127;SDS011;2582;48.770;9.190;2024-03-02T10:52:35;5.00;;;4.60;;
5127;SDS011;2582;48.770;9.190;2024-03-02T10:55:01;4.83;;;4.27;;
5127;SDS011;2582;48.770;9.190;2024-03-02T10:57:30;5.67;;;5.17;;
5127;SDS011;2582;48.770;9.190;2024-03-02T11:00:04;7.10;;;5.97;;
5127;SDS011;2582;48.770;9.190;2024-03-02T11:02:39;5.17;;;4.67;;
5127;SDS011;2582;48.770;9.190;2024-03-02T11:05:07;4.90;;;4.40;;
5127;SDS011;2582;48.770;9.190;2024-03-02T11:07:35;4.93;;;4.23;;
5127;SDS011;2582;48.770;9.190;2024-03-02T11:10:03;5.73;;;5.10;;
5127;SDS011;2582;48.770;9.190;2024-03-02T11:12:36;4.97;;;4.57;;
5127;SDS011;2582;48.770;9.190;2024-03-02T11:15:11;4.60;;;4.20;;
5127;SDS011;2582;48.770;9.190;2024-03-02T11:17:43;4.40;;;3.70;;
5127;SDS011;2582;48.770;9.190;2024-03-02T11:20:11;4.10;;;3.70;;
5127;SDS011;2582;48.770;9.190;2024-03-02T11:22:36;4.60;;;3.70;;
5127;SDS011;2582;48.770;9.190;2024-03-02T11:25:03;3.30;;;3.00;;
5127;SDS011;2582;48.770;9.190;2024-03-02T11:32:57;3.23;;;2.30;;
5127;SDS011;2582;48.770;9.190;2024-03-02T11:35:31;2.27;;;2.07;;
5127;SDS011;2582;48.770;9.190;2024-03-02T11:37:56;1.77;;;1.57;;
5127;SDS011;2582;48.770;9.190;2024-03-02T11:40:25;1.40;;;1.10;;
5127;SDS011;2582;48.770;9.190;2024-03-02T11:42:51;2.80;;;1.53;;
5127;SDS011;2582;48.770;9.190;2024-03-02T11:45:17;2.10;;;1.60;;
5127;SDS011;2582;48.770;9.190;2024-03-02T11:47:51;1.20;;;1.10;;
5127;SDS011;2582;48.770;9.190;2024-03-02T11:50:34;1.10;;;0.80;;
5127;SDS011;2582;48.770;9.190;2024-03-02T11:53:02;0.93;;;0.60;;
5127;SDS011;2582;48.770;9.190;2024-03-02T11:55:36;1.70;;;0.90;;
5127;SDS011;2582;48.770;9.190;2024-03-02T11:58:03;0.90;;;0.70;;
5127;SDS011;2582;48.770;9.190;2024-03-02T12:00:29;0.93;;;0.70;;
5127;SDS011;2582;48.770;9.190;2024-03-02T12:03:01;1.00;;;0.70;;
5127;SDS011;2582;48.770;9.190;2024-03-02T12:05:29;0.93;;;0.80;;
5127;SDS011;2582;48.770;9.190;2024-03-02T12:07:59;1.10;;;0.83;;
5127;SDS011;2582;48.770;9.190;2024-03-02T12:10:26;1.50;;;1.30;;
5127;SDS011;2582;48.770;9.190;2024-03-02T12:12:58;3.10;;;1.00;;
5127;SDS011;2582;48.770;9.190;2024-03-02T12:15:25;1.47;;;1.37;;
5127;SDS011;2582;48.770;9.190;2024-03-02T12:17:53;2.10;;;1.60;;
5127;SDS011;2582;48.770;9.190;2024-03-02T12:20:22;2.60;;;1.57;;
5127;SDS011;2582;48.770;9.190;2024-03-02T12:22:52;1.60;;;1.10;;
5127;SDS011;2582;48.770;9.190;2024-03-02T12:25:20;0.90;;;0.70;;
5127;SDS011;2582;48.770;9.190;2024-03-02T12:27:49;1.20;;;0.93;;
5127;SDS011;2582;48.770;9.190;2024-03-02T12:30:17;1.60;;;0.87;;
5127;SDS011;2582;48.770;9.190;2024-03-02T12:32:44;1.10;;;0.90;;
5127;SDS011;2582;48.770;9.190;2024-03-02T12:35:10;1.17;;;1.07;;
5127;SDS011;2582;48.770;9.190;2024-03-02T12:37:49;1.40;;;1.13;;
5127;SDS011;2582;48.770;9.190;2024-03-02T12:40:16;1.30;;;1.20;;
5127;SDS011;2582;48.770;9.190;2024-03-02T12:42:44;1.73;;;1.20;;
5127;SDS011;2582;48.770;9.190;2024-03-02T12:45:10;1.80;;;1.10;;
5127;SDS011;2582;48.770;9.190;2024-03-02T12:47:36;1.17;;;1.00;;
5127;SDS011;2582;48.770;9.190;2024-03-02T12:50:04;1.90;;;1.03;;
5127;SDS011;2582;48.770;9.190;2024-03-02T12:52:30;1.80;;;1.23;;
5127;SDS011;2582;48.770;9.190;2024-03-02T12:54:59;1.60;;;1.40;;
5127;SDS011;2582;48.770;9.190;2024-03-02T12:57:28;1.40;;;1.30;;
5127;SDS011;2582;48.770;9.190;2024-03-02T13:00:00;2.77;;;1.67;;
5127;SDS011;2582;48.770;9.190;2024-03-02T13:02:39;1.97;;;1.40;;
5127;SDS011;2582;48.770;9.190;2024-03-02T13:05:06;1.57;;;1.30;;
5127;SDS011;2582;48.770;9.190;2024-03-02T13:07:36;1.88;;;1.50;;
5127;SDS011;2582;48.770;9.190;2024-03-02T13:10:02;1.37;;;1.27;;
5127;SDS011;2582;48.770;9.190;2024-03-02T13:12:28;1.97;;;1.10;;
5127;SDS011;2582;48.770;9.190;2024-03-02T13:14:57;2.20;;;1.30;;
5127;SDS011;2582;48.770;9.190;2024-03-02T13:17:23;1.30;;;1.20;;
5127;SDS011;2582;48.770;9.190;2024-03-02T13:19:55;2.30;;;1.27;;
5127;SDS011;2582;48.770;9.190;2024-03-02T13:22:25;1.40;;;1.10;;
5127;SDS011;2582;48.770;9.190;2024-03-02T13:24:51;1.30;;;1.00;;
5127;SDS011;2582;48.770;9.190;2024-03-02T13:27:18;2.25;;;1.80;;
5127;SDS011;2582;48.770;9.190;2024-03-02T13:29:46;1.40;;;1.20;;
5127;SDS011;2582;48.770;9.190;2024-03-02T13:32:13;2.10;;;1.63;;
5127;SDS011;2582;48.770;9.190;2024-03-02T13:34:39;1.10;;;1.00;;
5127;SDS011;2582;48.770;9.190;2024-03-02T13:37:05;1.50;;;1.30;;
5127;SDS011;2582;48.770;9.190;2024-03-02T13:39:31;1.53;;;1.40;;
5127;SDS011;2582;48.770;9.190;2024-03-02T13:41:57;2.27;;;1.60;;
5127;SDS011;2582;48.770;9.190;2024-03-02T13:44:29;2.47;;;1.70;;
5127;SDS011;2582;48.770;9.190;2024-03-02T13:46:55;1.75;;;1.40;;
5127;SDS011;2582;48.770;9.190;2024-03-02T13:49:21;3.37;;;1.93;;
5127;SDS011;2582;48.770;9.190;2024-03-02T13:51:48;2.27;;;1.60;;
5127;SDS011;2582;48.770;9.190;2024-03-02T13:54:13;1.80;;;1.20;;
5127;SDS011;2582;48.770;9.190;2024-03-02T13:56:39;1.70;;;1.33;;
5127;SDS011;2582;48.770;9.190;2024-03-02T13:59:05;1.83;;;1.43;;
5127;SDS011;2582;48.770;9.190;2024-03-02T14:01:32;2.40;;;1.40;;
5127;SDS011;2582;48.770;9.190;2024-03-02T14:03:58;2.50;;;1.40;;
5127;SDS011;2582;48.770;9.190;2024-03-02T14:06:23;3.60;;;1.90;;
5127;SDS011;2582;48.770;9.190;2024-03-02T14:08:51;1.30;;;1.20;;
5127;SDS011;2582;48.770;9.190;2024-03-02T14:11:17;1.50;;;1.20;;
5127;SDS011;2582;48.770;9.190;2024-03-02T14:13:44;1.87;;;1.17;;
5127;SDS011;2582;48.770;9.190;2024-03-02T14:16:14;1.50;;;1.20;;
5127;SDS011;2582;48.770;9.190;2024-03-02T14:18:40;1.57;;;1.03;;
5127;SDS011;2582;48.770;9.190;2024-03-02T14:21:06;3.33;;;3.10;;
5127;SDS011;2582;48.770;9.190;2024-03-02T14:23:32;1.50;;;1.23;;
5127;SDS011;2582;48.770;9.190;2024-03-02T14:25:57;1.10;;;0.80;;
5127;SDS011;2582;48.770;9.190;2024-03-02T14:28:24;1.00;;;0.90;;
5127;SDS011;2582;48.770;9.190;2024-03-02T14:30:49;2.30;;;0.93;;
5127;SDS011;2582;48.770;9.190;2024-03-02T14:33:15;1.40;;;1.07;;
5127;SDS011;2582;48.770;9.190;2024-03-02T14:35:41;2.40;;;1.40;;
5127;SDS011;2582;48.770;9.190;2024-03-02T14:38:07;1.43;;;1.33;;
5127;SDS011;2582;48.770;9.190;2024-03-02T14:40:33;2.30;;;1.37;;
5127;SDS011;2582;48.770;9.190;2024-03-02T14:42:58;2.60;;;1.10;;
5127;SDS011;2582;48.770;9.190;2024-03-02T14:45:24;1.27;;;0.90;;
5127;SDS011;2582;48.770;9.190;2024-03-02T14:47:49;2.40;;;1.60;;
5127;SDS011;2582;48.770;9.190;2024-03-02T14:50:17;1.80;;;1.10;;
5127;SDS011;2582;48.770;9.190;2024-03-02T14:52:43;4.33;;;1.60;;
5127;SDS011;2582;48.770;9.190;2024-03-02T14:55:10;1.67;;;1.10;;
5127;SDS011;2582;48.770;9.190;2024-03-02T14:57:36;1.43;;;1.00;;
5127;SDS011;2582;48.770;9.190;2024-03-02T15:00:01;4.43;;;1.33;;
5127;SDS011;2582;48.770;9.190;2024-03-02T15:02:27;1.73;;;1.10;;
5127;SDS011;2582;48.770;9.190;2024-03-02T15:04:54;1.90;;;1.40;;
5127;SDS011;2582;48.770;9.190;2024-03-02T15:07:20;1.30;;;1.00;;